Time;durP1;ratioP1;P1;durP2;ratioP2;P2;SDS_P1;SDS_P2;PMS_P1;PMS_P2;Temp;Humidity;BMP_temperature;BMP_pressure;BME280_temperature;BME280_humidity;BME280_pressure;Samples;Min_cycle;Max_cycle;Signal;HPM_P1;HPM_P2
2023/07/15 00:00:39;;;;;;;3.70;2.97;;;16.20;99.70;;;;;;10285603;28;20229;-82
2023/07/15 00:05:41;;;;;;;4.53;3.53;;;16.10;99.90;;;;;;10267458;28;20237;-82
2023/07/15 00:10:46;;;;;;;7.05;3.67;;;16.10;99.30;;;;;;10283460;28;20319;-82
2023/07/15 00:15:53;;;;;;;3.97;3.55;;;16.00;99.20;;;;;;10284950;28;20735;-82
2023/07/15 00:20:56;;;;;;;3.42;3.13;;;15.80;99.70;;;;;;10274824;28;20298;-82
2023/07/15 00:25:58;;;;;;;6.55;3.78;;;16.00;99.50;;;;;;10289794;28;20257;-82
2023/07/15 00:31:01;;;;;;;6.22;4.00;;;15.90;99.70;;;;;;10291937;28;20249;-82
2023/07/15 00:36:05;;;;;;;5.53;3.20;;;16.00;98.30;;;;;;10273386;28;20343;-82
2023/07/15 00:41:14;;;;;;;5.68;3.00;;;15.90;98.70;;;;;;10272565;28;20261;-82
2023/07/15 00:46:26;;;;;;;5.93;3.30;;;15.90;99.90;;;;;;10289433;28;20620;-82
2023/07/15 00:51:33;;;;;;;4.82;3.97;;;15.90;98.70;;;;;;10273745;28;20300;-82
2023/07/15 00:56:37;;;;;;;6.32;3.88;;;15.90;99.00;;;;;;10259997;28;20335;-82
2023/07/15 01:01:40;;;;;;;3.92;3.53;;;15.90;98.70;;;;;;10291208;28;20683;-82
2023/07/15 01:06:45;;;;;;;5.07;3.90;;;15.70;98.40;;;;;;10273253;28;20296;-82
2023/07/15 01:11:49;;;;;;;5.80;3.67;;;15.60;98.70;;;;;;10272028;28;20677;-82
2023/07/15 01:16:51;;;;;;;3.45;2.58;;;15.50;99.70;;;;;;10272715;28;20316;-83
2023/07/15 01:21:54;;;;;;;5.28;4.10;;;15.60;99.90;;;;;;10272857;28;20276;-82
2023/07/15 01:27:01;;;;;;;4.53;3.65;;;15.60;99.90;;;;;;10270814;28;20249;-82
2023/07/15 01:32:05;;;;;;;6.32;3.80;;;15.50;99.90;;;;;;10325672;28;20279;-82
2023/07/15 01:37:08;;;;;;;4.43;3.95;;;15.30;99.90;;;;;;10311285;28;20650;-82
2023/07/15 01:42:11;;;;;;;8.20;4.30;;;15.30;99.90;;;;;;10274351;28;20269;-82
2023/07/15 01:47:13;;;;;;;5.60;3.65;;;15.50;99.90;;;;;;10270123;28;20288;-82
2023/07/15 01:52:18;;;;;;;4.90;4.35;;;15.30;99.90;;;;;;10288357;28;20232;-82
2023/07/15 01:57:21;;;;;;;4.65;4.00;;;15.70;99.90;;;;;;10242658;28;20272;-83
2023/07/15 02:02:24;;;;;;;5.60;4.50;;;15.50;99.90;;;;;;10269167;28;20384;-83
2023/07/15 02:07:29;;;;;;;4.63;3.95;;;15.40;99.90;;;;;;10269364;28;20275;-83
2023/07/15 02:12:34;;;;;;;4.30;3.58;;;15.40;99.90;;;;;;10254360;28;20282;-82
2023/07/15 02:17:39;;;;;;;4.53;4.13;;;15.50;99.90;;;;;;10287458;28;20241;-82
2023/07/15 02:22:42;;;;;;;6.10;3.83;;;15.30;99.90;;;;;;10279435;28;20269;-83
2023/07/15 02:27:45;;;;;;;4.35;3.80;;;15.30;99.90;;;;;;10245519;29;20206;-82
2023/07/15 02:32:48;;;;;;;5.50;3.80;;;15.50;99.90;;;;;;10229747;29;20246;-82
2023/07/15 02:37:51;;;;;;;3.97;3.53;;;15.50;99.90;;;;;;10255043;28;20249;-82
2023/07/15 02:42:54;;;;;;;8.35;3.75;;;15.60;99.90;;;;;;10267364;28;20324;-82
2023/07/15 02:47:56;;;;;;;4.90;3.40;;;15.60;99.90;;;;;;10286936;28;20241;-82
2023/07/15 02:52:59;;;;;;;4.88;4.05;;;15.70;99.90;;;;;;10268023;28;20249;-82
2023/07/15 02:58:03;;;;;;;4.10;3.58;;;15.80;99.90;;;;;;10268781;28;20271;-82
2023/07/15 03:03:07;;;;;;;4.07;3.60;;;15.70;99.90;;;;;;10229184;29;20246;-82
2023/07/15 03:08:10;;;;;;;5.20;4.70;;;16.00;99.90;;;;;;10245816;28;20245;-82
2023/07/15 03:13:12;;;;;;;6.47;3.47;;;16.20;99.90;;;;;;10267862;28;20320;-82
2023/07/15 03:18:15;;;;;;;5.43;4.00;;;16.10;99.90;;;;;;10286159;28;20276;-82
2023/07/15 03:23:18;;;;;;;5.35;4.10;;;16.10;99.90;;;;;;10267675;28;20209;-82
2023/07/15 03:28:22;;;;;;;5.28;4.60;;;15.90;99.90;;;;;;10267962;28;20601;-82
2023/07/15 03:33:24;;;;;;;6.30;4.22;;;16.00;99.90;;;;;;10285905;28;20257;-83
2023/07/15 03:38:28;;;;;;;6.95;4.30;;;16.00;99.90;;;;;;10285282;28;20272;-82
2023/07/15 03:43:30;;;;;;;6.13;3.80;;;16.00;99.90;;;;;;10285169;28;20265;-82
2023/07/15 03:48:33;;;;;;;6.50;4.03;;;16.10;99.90;;;;;;10284510;28;20625;-82
2023/07/15 03:53:35;;;;;;;7.80;4.28;;;16.40;99.90;;;;;;10289336;28;20257;-82
2023/07/15 03:58:38;;;;;;;5.22;4.10;;;16.50;99.90;;;;;;10275903;28;20291;-82
2023/07/15 04:03:40;;;;;;;5.65;4.03;;;16.60;99.90;;;;;;10292080;28;20264;-82
2023/07/15 04:08:43;;;;;;;5.22;3.58;;;16.80;99.90;;;;;;10296874;28;20245;-82
2023/07/15 04:13:46;;;;;;;3.83;3.30;;;17.00;99.90;;;;;;10332180;28;20260;-83
2023/07/15 04:18:48;;;;;;;7.55;4.32;;;17.40;99.90;;;;;;10312277;28;20241;-83
2023/07/15 04:23:52;;;;;;;4.97;3.30;;;17.30;99.90;;;;;;10280093;28;20307;-83
2023/07/15 04:28:58;;;;;;;3.30;2.88;;;17.80;99.90;;;;;;10289732;28;20249;-82
2023/07/15 04:34:00;;;;;;;3.05;2.28;;;17.70;99.90;;;;;;10288939;28;20273;-83
2023/07/15 04:39:03;;;;;;;4.65;4.00;;;18.10;99.90;;;;;;10272190;28;20237;-83
2023/07/15 04:44:06;;;;;;;5.93;3.13;;;18.20;97.80;;;;;;10289963;28;20292;-82
2023/07/15 04:49:09;;;;;;;3.83;2.78;;;18.10;98.10;;;;;;10289408;28;20640;-83
2023/07/15 04:54:12;;;;;;;2.05;1.95;;;18.50;97.80;;;;;;10272453;28;20273;-82
2023/07/15 04:59:14;;;;;;;6.20;3.22;;;18.70;97.20;;;;;;10290070;28;20653;-84
2023/07/15 05:04:17;;;;;;;10.07;4.45;;;19.30;96.60;;;;;;10289139;28;20303;-83
2023/07/15 05:09:19;;;;;;;9.07;3.72;;;19.10;96.20;;;;;;10288349;28;20245;-83
2023/07/15 05:14:23;;;;;;;5.00;1.98;;;19.40;98.20;;;;;;10272662;28;20257;-83
2023/07/15 05:19:26;;;;;;;7.90;2.80;;;19.30;95.70;;;;;;10289272;28;20229;-83
2023/07/15 05:24:29;;;;;;;3.03;2.05;;;19.50;94.70;;;;;;10288948;28;20699;-83
2023/07/15 05:29:31;;;;;;;2.00;1.70;;;19.80;93.90;;;;;;10289601;28;20617;-83
2023/07/15 05:34:34;;;;;;;1.83;1.70;;;19.90;93.30;;;;;;10289452;28;20315;-83
2023/07/15 05:39:36;;;;;;;3.60;2.22;;;20.40;99.90;;;;;;10286731;28;20265;-83
2023/07/15 05:44:39;;;;;;;2.65;2.42;;;20.70;99.90;;;;;;10288918;28;20249;-83
2023/07/15 05:49:41;;;;;;;3.85;1.73;;;20.80;99.90;;;;;;10275633;28;20696;-83
2023/07/15 05:54:44;;;;;;;8.27;3.20;;;20.80;90.00;;;;;;10286671;28;20790;-83
2023/07/15 05:59:46;;;;;;;2.22;1.70;;;21.00;86.30;;;;;;10288588;28;20237;-83
2023/07/15 06:04:49;;;;;;;5.82;2.58;;;21.20;86.60;;;;;;10287955;28;20245;-83
2023/07/15 06:09:52;;;;;;;3.42;2.60;;;21.40;82.50;;;;;;10286368;28;20688;-83
2023/07/15 06:14:55;;;;;;;3.03;2.72;;;21.50;83.80;;;;;;10286369;28;20328;-83
2023/07/15 06:19:58;;;;;;;4.80;3.92;;;21.70;82.90;;;;;;10267789;28;20682;-83
2023/07/15 06:25:00;;;;;;;5.97;4.25;;;22.00;78.70;;;;;;10268606;28;20262;-84
2023/07/15 06:30:04;;;;;;;2.28;1.75;;;22.20;76.60;;;;;;10280316;28;20298;-83
2023/07/15 06:35:07;;;;;;;3.70;3.30;;;22.40;76.50;;;;;;10287212;28;20265;-83
2023/07/15 06:40:10;;;;;;;1.70;1.60;;;22.60;75.30;;;;;;10286830;28;20716;-83
2023/07/15 06:45:13;;;;;;;5.57;3.17;;;22.80;73.80;;;;;;10265945;28;20304;-83
2023/07/15 06:50:16;;;;;;;2.50;1.58;;;23.10;71.10;;;;;;10267500;28;20237;-82
2023/07/15 06:55:18;;;;;;;1.13;1.02;;;23.30;70.40;;;;;;10285659;28;20260;-83
2023/07/15 07:00:24;;;;;;;5.57;4.07;;;23.50;67.40;;;;;;10265090;28;20813;-82
2023/07/15 07:05:27;;;;;;;6.90;4.75;;;23.70;65.80;;;;;;10251432;28;20242;-82
2023/07/15 07:10:30;;;;;;;2.45;2.13;;;23.90;64.10;;;;;;10246391;29;20245;-83
2023/07/15 07:15:32;;;;;;;1.10;1.00;;;24.20;63.40;;;;;;10270053;28;20269;-83
2023/07/15 07:20:35;;;;;;;7.15;3.60;;;24.40;60.50;;;;;;10285070;28;20257;-82
2023/07/15 07:25:41;;;;;;;3.97;2.88;;;24.70;58.60;;;;;;10286120;28;20241;-82
2023/07/15 07:30:44;;;;;;;3.75;2.53;;;24.90;57.40;;;;;;10301360;28;20249;-82
2023/07/15 07:35:47;;;;;;;2.67;2.35;;;25.00;56.40;;;;;;10293383;28;20265;-82
2023/07/15 07:40:49;;;;;;;4.18;2.17;;;25.30;51.60;;;;;;10276108;28;20292;-82
2023/07/15 07:45:52;;;;;;;2.10;1.58;;;25.50;50.20;;;;;;10274585;28;20237;-82
2023/07/15 07:50:55;;;;;;;3.47;2.53;;;25.70;48.80;;;;;;10273161;28;20264;-82
2023/07/15 07:55:58;;;;;;;2.28;1.77;;;25.90;47.30;;;;;;10275572;28;20277;-83
2023/07/15 08:01:01;;;;;;;2.80;1.70;;;26.10;45.40;;;;;;10253582;28;20274;-82
2023/07/15 08:06:04;;;;;;;3.75;1.27;;;26.30;44.00;;;;;;10288336;28;20775;-82
2023/07/15 08:11:07;;;;;;;1.15;1.05;;;26.50;42.60;;;;;;10290265;28;20327;-81
2023/07/15 08:16:31;;;;;;;3.80;2.17;;;26.70;40.40;;;;;;10290578;28;20261;-83
2023/07/15 08:21:34;;;;;;;2.25;2.05;;;26.80;38.20;;;;;;10290571;28;20233;-87
2023/07/15 08:26:37;;;;;;;3.67;1.90;;;27.00;37.10;;;;;;10291585;28;20311;-84
2023/07/15 08:31:39;;;;;;;3.90;3.50;;;27.10;35.20;;;;;;10291094;28;20692;-84
2023/07/15 08:36:42;;;;;;;3.95;2.08;;;27.20;33.50;;;;;;10286453;28;20281;-84
2023/07/15 08:41:45;;;;;;;3.28;2.17;;;27.30;32.80;;;;;;10290217;28;20320;-84
2023/07/15 08:46:51;;;;;;;6.22;2.60;;;27.40;32.20;;;;;;10271881;28;20296;-84
2023/07/15 08:51:54;;;;;;;7.97;3.50;;;27.60;32.00;;;;;;10290577;28;20241;-84
2023/07/15 08:56:57;;;;;;;17.48;4.25;;;27.70;30.30;;;;;;10271462;28;20304;-85
2023/07/15 09:02:00;;;;;;;5.25;4.20;;;27.90;30.00;;;;;;10273506;28;20237;-85
2023/07/15 09:07:02;;;;;;;3.50;3.20;;;28.00;29.80;;;;;;10290544;28;20249;-84
2023/07/15 09:12:09;;;;;;;2.35;1.90;;;28.10;28.40;;;;;;10286550;28;20264;-83
2023/07/15 09:17:21;;;;;;;7.80;3.28;;;28.20;27.90;;;;;;10289140;28;20308;-82
2023/07/15 09:22:26;;;;;;;3.38;1.77;;;28.30;29.00;;;;;;10271037;28;20238;-86
2023/07/15 09:27:29;;;;;;;2.80;2.05;;;28.30;27.80;;;;;;10292360;28;20275;-85
2023/07/15 09:32:32;;;;;;;2.80;2.47;;;28.40;26.60;;;;;;10275280;28;20296;-85
2023/07/15 09:37:35;;;;;;;2.08;1.88;;;28.40;27.20;;;;;;10270776;28;20257;-84
2023/07/15 09:42:54;;;;;;;5.30;2.40;;;28.40;27.10;;;;;;10269446;28;20288;-84
2023/07/15 09:47:57;;;;;;;7.07;3.97;;;28.40;26.20;;;;;;10287935;28;20634;-85
2023/07/15 09:53:01;;;;;;;5.25;3.72;;;28.50;25.30;;;;;;10269084;28;20280;-83
2023/07/15 09:58:10;;;;;;;6.10;4.18;;;28.50;27.10;;;;;;10269596;28;20269;-85
2023/07/15 10:03:20;;;;;;;2.88;2.53;;;28.60;25.80;;;;;;10269290;28;20253;-86
2023/07/15 10:08:24;;;;;;;3.33;2.80;;;28.80;26.30;;;;;;10269392;28;20250;-86
2023/07/15 10:13:27;;;;;;;9.30;2.85;;;28.90;23.20;;;;;;10271495;28;20604;-87
2023/07/15 10:18:31;;;;;;;3.90;2.63;;;29.00;23.00;;;;;;10273339;28;20265;-86
2023/07/15 10:23:34;;;;;;;2.80;1.90;;;29.10;21.10;;;;;;10274003;28;20236;-86
2023/07/15 10:28:41;;;;;;;2.75;2.55;;;29.20;21.00;;;;;;10283686;28;20238;-85
2023/07/15 10:33:55;;;;;;;3.85;2.03;;;29.30;18.00;;;;;;10267117;28;20249;-89
2023/07/15 10:39:11;;;;;;;3.42;2.55;;;29.40;20.50;;;;;;10284187;28;20273;-87
2023/07/15 10:44:15;;;;;;;1.73;1.63;;;29.50;19.60;;;;;;10267966;28;20263;-87
2023/07/15 10:49:19;;;;;;;2.30;1.83;;;29.60;17.30;;;;;;10269717;28;20652;-87
2023/07/15 10:54:23;;;;;;;2.35;2.15;;;29.60;17.90;;;;;;10278021;28;20246;-87
2023/07/15 10:59:36;;;;;;;2.35;2.15;;;29.70;17.30;;;;;;10264610;28;20846;-87
2023/07/15 11:04:40;;;;;;;4.22;1.67;;;29.80;16.70;;;;;;10253104;28;20242;-87
2023/07/15 11:09:43;;;;;;;2.47;2.28;;;29.90;17.00;;;;;;10276585;28;20740;-86
2023/07/15 11:14:46;;;;;;;2.55;2.35;;;29.90;17.30;;;;;;10281427;28;20241;-84
2023/07/15 11:19:48;;;;;;;4.97;3.53;;;29.90;15.90;;;;;;10266496;28;20712;-86
2023/07/15 11:24:51;;;;;;;5.93;2.55;;;30.10;14.40;;;;;;10266894;28;20245;-86
2023/07/15 11:35:39;;;;;;;3.70;1.77;;;30.40;12.30;;;;;;10907519;23;10002061;-87
2023/07/15 11:40:59;;;;;;;1.70;1.60;;;30.60;11.00;;;;;;10173945;29;20243;-87
2023/07/15 11:46:02;;;;;;;5.38;2.67;;;30.60;14.70;;;;;;10149317;29;20247;-87
2023/07/15 11:51:09;;;;;;;3.45;1.85;;;30.60;10.10;;;;;;10145245;29;20474;-87
2023/07/15 11:56:11;;;;;;;3.35;2.33;;;30.50;12.90;;;;;;10148925;29;20376;-87
2023/07/15 12:01:16;;;;;;;3.50;2.67;;;30.50;11.50;;;;;;10146681;29;20243;-87
2023/07/15 12:06:22;;;;;;;4.72;2.17;;;30.60;9.50;;;;;;10202537;29;20242;-87
2023/07/15 12:11:25;;;;;;;2.42;1.83;;;30.90;7.90;;;;;;10178164;29;20255;-87
2023/07/15 12:16:28;;;;;;;4.53;2.45;;;30.90;9.40;;;;;;10172026;29;21006;-87
2023/07/15 12:21:31;;;;;;;2.92;2.63;;;30.90;6.90;;;;;;10180384;29;20274;-88
2023/07/15 12:26:34;;;;;;;4.70;2.42;;;31.20;7.70;;;;;;10176276;29;20301;-88
2023/07/15 12:31:36;;;;;;;7.05;2.92;;;31.20;7.50;;;;;;10168360;29;21050;-88
2023/07/15 12:36:40;;;;;;;3.17;2.42;;;31.10;7.10;;;;;;10150954;29;20292;-87
2023/07/15 12:41:42;;;;;;;2.90;2.30;;;31.10;8.90;;;;;;10137437;29;21052;-87
2023/07/15 12:46:45;;;;;;;5.55;2.63;;;31.20;6.80;;;;;;10149982;29;20717;-87
2023/07/15 12:51:47;;;;;;;2.50;2.13;;;31.10;7.40;;;;;;10168128;29;20247;-87
2023/07/15 12:56:50;;;;;;;11.82;2.83;;;31.10;6.80;;;;;;10151505;29;20268;-87
2023/07/15 13:01:52;;;;;;;2.63;2.35;;;31.20;7.30;;;;;;10168596;29;20317;-87
2023/07/15 13:06:55;;;;;;;2.80;2.22;;;31.10;10.50;;;;;;10160965;29;20290;-87
2023/07/15 13:11:57;;;;;;;8.13;2.70;;;30.80;10.30;;;;;;10168985;29;21221;-87
2023/07/15 13:17:00;;;;;;;4.72;2.40;;;30.80;7.20;;;;;;10152254;29;20271;-87
2023/07/15 13:22:03;;;;;;;3.28;2.17;;;31.00;5.70;;;;;;10159784;29;20275;-87
2023/07/15 13:27:05;;;;;;;2.85;2.55;;;31.10;6.10;;;;;;10153319;29;20279;-87
2023/07/15 13:32:08;;;;;;;2.80;2.60;;;31.00;11.40;;;;;;10168271;29;20812;-86
2023/07/15 13:37:11;;;;;;;2.78;2.45;;;30.80;11.10;;;;;;10136735;29;20271;-86
2023/07/15 13:42:18;;;;;;;3.00;2.25;;;30.80;7.50;;;;;;10167405;29;20365;-86
2023/07/15 13:47:20;;;;;;;2.45;2.25;;;31.00;6.40;;;;;;10113774;29;20248;-86
2023/07/15 13:52:24;;;;;;;4.90;3.40;;;31.10;8.40;;;;;;10113490;29;20285;-86
2023/07/15 13:57:26;;;;;;;3.55;2.95;;;31.00;9.20;;;;;;10135640;29;20259;-87
2023/07/15 14:02:29;;;;;;;3.90;2.60;;;30.70;12.20;;;;;;10151465;29;20834;-87
2023/07/15 14:07:31;;;;;;;3.97;2.28;;;30.80;7.00;;;;;;10151774;29;20892;-86
2023/07/15 14:12:35;;;;;;;3.40;1.70;;;30.80;9.20;;;;;;10143709;29;20245;-86
2023/07/15 14:17:38;;;;;;;9.68;2.72;;;31.00;6.70;;;;;;10129655;29;20263;-86
2023/07/15 14:22:41;;;;;;;3.38;2.47;;;31.00;7.20;;;;;;10128714;29;20292;-87
2023/07/15 14:27:51;;;;;;;3.20;2.80;;;31.10;6.30;;;;;;10155043;29;21920;-86
2023/07/15 14:32:54;;;;;;;3.05;2.20;;;31.10;7.80;;;;;;10129052;29;20256;-86
2023/07/15 14:37:56;;;;;;;6.55;2.13;;;31.10;10.60;;;;;;10127449;29;20300;-86
2023/07/15 14:42:59;;;;;;;2.45;2.25;;;31.10;6.10;;;;;;10132545;29;20298;-86
2023/07/15 14:48:01;;;;;;;3.75;2.63;;;31.20;6.20;;;;;;10167736;29;20251;-86
2023/07/15 14:53:07;;;;;;;3.42;2.80;;;31.30;4.20;;;;;;10164474;29;20650;-86
2023/07/15 14:58:10;;;;;;;2.75;2.47;;;31.20;7.40;;;;;;10167286;29;20334;-87
2023/07/15 15:03:12;;;;;;;3.10;2.33;;;31.10;10.50;;;;;;10151325;29;20247;-86
2023/07/15 15:08:15;;;;;;;2.95;2.50;;;31.10;4.60;;;;;;9802121;29;9999957;-87
2023/07/15 15:13:17;;;;;;;2.70;2.30;;;30.90;11.20;;;;;;10126014;29;20817;-86
2023/07/15 15:18:21;;;;;;;2.92;2.65;;;30.60;8.70;;;;;;10133121;29;20327;-86
2023/07/15 15:23:24;;;;;;;3.35;2.90;;;30.60;9.00;;;;;;10125727;29;20240;-86
2023/07/15 15:28:26;;;;;;;7.05;2.72;;;30.50;10.40;;;;;;10137883;29;20325;-86
2023/07/15 15:33:29;;;;;;;3.53;2.83;;;30.50;7.90;;;;;;10164015;29;20294;-86
2023/07/15 15:38:31;;;;;;;3.58;3.28;;;30.30;10.40;;;;;;10123376;29;20334;-86
2023/07/15 15:43:34;;;;;;;7.20;3.10;;;30.30;12.00;;;;;;10164504;29;20947;-85
2023/07/15 15:48:37;;;;;;;3.25;2.75;;;30.10;12.90;;;;;;10171264;29;20644;-86
2023/07/15 15:54:01;;;;;;;2.92;2.63;;;30.20;11.00;;;;;;10175611;29;20228;-85
2023/07/15 15:59:03;;;;;;;2.95;2.70;;;30.30;10.60;;;;;;10173913;29;20655;-85
2023/07/15 16:04:06;;;;;;;4.63;2.67;;;30.30;10.60;;;;;;10172618;29;20630;-85
2023/07/15 16:09:09;;;;;;;6.72;3.50;;;30.30;11.00;;;;;;10168909;29;20255;-85
2023/07/15 16:14:11;;;;;;;4.25;2.55;;;30.40;9.90;;;;;;10174050;29;20251;-85
2023/07/15 16:19:14;;;;;;;3.28;2.97;;;30.40;11.50;;;;;;10172958;29;20321;-85
2023/07/15 16:24:16;;;;;;;4.30;2.67;;;30.30;13.10;;;;;;10173934;29;20248;-85
2023/07/15 16:29:19;;;;;;;3.67;2.85;;;30.40;11.80;;;;;;10174232;29;20240;-85
2023/07/15 16:34:21;;;;;;;2.33;2.00;;;30.50;13.00;;;;;;10167011;29;20312;-85
2023/07/15 16:39:24;;;;;;;4.72;2.80;;;30.60;11.50;;;;;;10185920;29;20295;-85
2023/07/15 16:44:26;;;;;;;5.25;2.63;;;30.60;10.60;;;;;;10155058;29;20244;-86
2023/07/15 16:49:29;;;;;;;3.75;2.65;;;30.70;9.70;;;;;;10137891;29;20212;-85
2023/07/15 16:54:31;;;;;;;2.33;2.13;;;30.80;8.80;;;;;;10154792;29;20595;-85
2023/07/15 16:59:36;;;;;;;4.18;3.38;;;30.90;10.50;;;;;;10165241;29;20227;-85
2023/07/15 17:04:39;;;;;;;5.32;2.40;;;30.90;10.30;;;;;;10161623;29;20292;-85
2023/07/15 17:09:44;;;;;;;3.35;2.97;;;30.90;11.00;;;;;;10142703;29;20548;-85
2023/07/15 17:14:49;;;;;;;15.32;3.95;;;30.80;12.70;;;;;;10164700;29;20223;-86
2023/07/15 17:19:52;;;;;;;2.42;2.22;;;30.60;12.80;;;;;;10184828;29;20224;-85
2023/07/15 17:24:56;;;;;;;4.35;2.85;;;30.50;11.90;;;;;;10207230;29;20184;-86
2023/07/15 17:29:59;;;;;;;3.50;3.20;;;30.40;12.80;;;;;;10208378;29;20251;-86
2023/07/15 17:35:02;;;;;;;5.15;3.20;;;30.30;13.40;;;;;;9863421;29;9999636;-86
2023/07/15 17:40:05;;;;;;;3.22;2.92;;;30.20;13.40;;;;;;10219244;29;20223;-95
2023/07/15 17:45:08;;;;;;;5.03;2.90;;;30.10;11.30;;;;;;10166721;23;20633;-83
2023/07/15 17:50:10;;;;;;;6.03;3.60;;;30.10;11.40;;;;;;10168344;29;20251;-83
2023/07/15 17:55:13;;;;;;;15.30;3.70;;;30.00;11.90;;;;;;10166731;29;20346;-83
2023/07/15 18:00:27;;;;;;;4.72;3.90;;;29.90;12.80;;;;;;10166602;29;20263;-83
2023/07/15 18:05:29;;;;;;;5.57;4.80;;;29.70;12.90;;;;;;10165741;29;20310;-83
2023/07/15 18:10:32;;;;;;;4.78;2.88;;;29.50;12.90;;;;;;10166241;29;20702;-83
2023/07/15 18:15:35;;;;;;;4.18;3.33;;;29.30;14.50;;;;;;10165391;29;20239;-83
2023/07/15 18:20:38;;;;;;;6.20;3.38;;;29.00;16.30;;;;;;10134297;29;20299;-83
2023/07/15 18:25:40;;;;;;;2.75;2.55;;;28.60;17.50;;;;;;10166710;29;20247;-83
2023/07/15 18:30:45;;;;;;;5.57;3.20;;;28.10;18.70;;;;;;10165934;29;20255;-84
2023/07/15 18:35:47;;;;;;;11.73;3.38;;;27.80;18.90;;;;;;10177774;29;20287;-84
2023/07/15 18:40:50;;;;;;;4.30;3.05;;;27.50;20.10;;;;;;10204546;29;20668;-84
2023/07/15 18:45:52;;;;;;;12.15;3.05;;;27.20;21.00;;;;;;10200400;29;20763;-83
2023/07/15 18:50:55;;;;;;;9.25;3.42;;;26.90;22.60;;;;;;10168236;29;20721;-80
2023/07/15 18:55:58;;;;;;;6.50;3.50;;;26.50;24.00;;;;;;10156031;29;20216;-81
2023/07/15 19:01:00;;;;;;;6.32;3.05;;;26.30;24.20;;;;;;10178358;29;20263;-84
2023/07/15 19:06:03;;;;;;;4.35;3.90;;;26.10;24.80;;;;;;10188384;29;20219;-81
2023/07/15 19:11:05;;;;;;;8.13;3.83;;;26.00;26.00;;;;;;10196340;29;20214;-82
2023/07/15 19:16:08;;;;;;;5.53;3.80;;;25.70;27.10;;;;;;10195025;29;20243;-82
2023/07/15 19:21:11;;;;;;;8.05;4.18;;;25.50;27.80;;;;;;10226253;29;20230;-84
2023/07/15 19:26:13;;;;;;;9.73;4.05;;;25.30;28.80;;;;;;10218410;29;20204;-83
2023/07/15 19:31:16;;;;;;;11.40;4.00;;;25.20;29.50;;;;;;10199519;29;20215;-82
2023/07/15 19:36:19;;;;;;;11.55;4.30;;;25.00;30.80;;;;;;10207128;29;20654;-81
2023/07/15 19:41:21;;;;;;;12.40;4.65;;;24.80;33.40;;;;;;10180847;29;20706;-81
2023/07/15 19:46:24;;;;;;;10.82;4.00;;;24.60;35.60;;;;;;10202724;29;20230;-82
2023/07/15 19:51:27;;;;;;;7.43;3.63;;;24.40;35.80;;;;;;10183791;29;20279;-81
2023/07/15 19:56:47;;;;;;;8.77;3.85;;;24.30;35.30;;;;;;10212653;29;20219;-81
2023/07/15 20:01:49;;;;;;;7.65;3.78;;;24.20;38.30;;;;;;10216658;29;20262;-82
2023/07/15 20:06:55;;;;;;;5.13;3.53;;;24.00;39.50;;;;;;10208892;29;20208;-81
2023/07/15 20:11:58;;;;;;;14.00;4.72;;;23.90;39.60;;;;;;10193584;29;20967;-82
2023/07/15 20:17:00;;;;;;;12.27;4.13;;;23.70;43.10;;;;;;10206337;29;20243;-82
2023/07/15 20:22:03;;;;;;;9.00;3.53;;;23.50;42.40;;;;;;10200085;29;20657;-82
2023/07/15 20:27:06;;;;;;;5.70;3.08;;;23.40;44.00;;;;;;10211850;29;20239;-83
2023/07/15 20:32:09;;;;;;;5.57;2.10;;;23.10;44.80;;;;;;10210370;29;20239;-81
2023/07/15 20:37:12;;;;;;;7.50;3.85;;;23.10;48.30;;;;;;10173073;29;20252;-83
2023/07/15 20:42:14;;;;;;;6.30;3.85;;;23.00;49.20;;;;;;10182665;29;20313;-80
2023/07/15 20:47:18;;;;;;;3.95;3.55;;;22.90;49.10;;;;;;10192546;29;20260;-82
2023/07/15 20:52:20;;;;;;;5.30;4.18;;;22.70;51.20;;;;;;10201875;29;20290;-82
2023/07/15 20:57:23;;;;;;;4.65;3.70;;;22.50;55.30;;;;;;10175378;29;20267;-82
2023/07/15 21:02:25;;;;;;;4.35;3.58;;;22.60;57.90;;;;;;10209135;29;20261;-82
2023/07/15 21:07:29;;;;;;;7.85;4.07;;;22.50;58.10;;;;;;10187266;29;20255;-82
2023/07/15 21:12:31;;;;;;;4.80;3.95;;;22.30;60.30;;;;;;10171906;29;20279;-82
2023/07/15 21:17:34;;;;;;;10.77;4.07;;;22.20;61.80;;;;;;10172355;29;20267;-82
2023/07/15 21:22:37;;;;;;;9.75;4.63;;;22.00;62.70;;;;;;10206921;29;20827;-82
2023/07/15 21:27:39;;;;;;;6.07;4.30;;;21.80;61.60;;;;;;10201310;29;20255;-83
2023/07/15 21:32:42;;;;;;;6.53;3.70;;;21.70;63.90;;;;;;10173004;29;20235;-84
2023/07/15 21:37:45;;;;;;;5.50;4.05;;;21.70;63.50;;;;;;10194988;29;20770;-83
2023/07/15 21:42:48;;;;;;;4.45;3.88;;;21.80;64.70;;;;;;10208837;29;20602;-82
2023/07/15 21:47:50;;;;;;;5.22;4.38;;;21.80;65.90;;;;;;10206023;29;20246;-83
2023/07/15 21:52:53;;;;;;;5.05;3.90;;;21.90;65.90;;;;;;10189461;29;20258;-81
2023/07/15 21:57:55;;;;;;;7.20;4.10;;;21.80;63.40;;;;;;10201767;29;20268;-83
2023/07/15 22:02:58;;;;;;;5.95;4.00;;;21.80;63.70;;;;;;10207876;29;20737;-85
2023/07/15 22:08:01;;;;;;;3.75;3.33;;;21.90;64.50;;;;;;10209033;29;20246;-87
2023/07/15 22:13:03;;;;;;;4.47;4.00;;;21.90;65.60;;;;;;10207519;29;20242;-85
2023/07/15 22:18:06;;;;;;;2.95;2.65;;;21.90;64.50;;;;;;10171908;29;20360;-83
2023/07/15 22:23:10;;;;;;;4.93;4.13;;;21.80;65.80;;;;;;10207063;29;20250;-83
2023/07/15 22:28:12;;;;;;;3.92;3.50;;;21.70;64.40;;;;;;10207904;29;20275;-83
2023/07/15 22:33:15;;;;;;;4.80;3.47;;;21.70;66.30;;;;;;10206611;29;20246;-83
2023/07/15 22:38:17;;;;;;;3.38;3.08;;;21.60;66.00;;;;;;10170433;29;20319;-84
2023/07/15 22:43:20;;;;;;;3.30;3.00;;;21.40;67.30;;;;;;10165790;29;20294;-82
2023/07/15 22:48:24;;;;;;;5.63;3.75;;;21.20;67.30;;;;;;10190145;29;20283;-82
2023/07/15 22:53:27;;;;;;;2.53;2.33;;;21.20;67.20;;;;;;10188436;29;20302;-82
2023/07/15 22:58:29;;;;;;;4.70;2.80;;;21.30;70.30;;;;;;10206355;29;20317;-82
2023/07/15 23:03:32;;;;;;;4.10;3.70;;;21.30;72.90;;;;;;10207234;29;20313;-82
2023/07/15 23:08:35;;;;;;;4.07;3.10;;;21.20;71.00;;;;;;10203672;29;20298;-82
2023/07/15 23:13:37;;;;;;;7.03;4.25;;;21.10;70.10;;;;;;10162717;29;20688;-82
2023/07/15 23:18:44;;;;;;;7.53;3.97;;;21.00;69.80;;;;;;10167885;29;20263;-82
2023/07/15 23:23:46;;;;;;;6.03;3.67;;;21.00;73.50;;;;;;10175576;29;20247;-82
2023/07/15 23:28:49;;;;;;;6.95;4.30;;;20.90;73.40;;;;;;10172087;29;20318;-82
2023/07/15 23:33:51;;;;;;;5.43;3.47;;;20.80;74.20;;;;;;10167076;29;20902;-82
2023/07/15 23:38:54;;;;;;;5.93;3.78;;;20.70;75.30;;;;;;10166562;29;20830;-82
2023/07/15 23:43:56;;;;;;;6.93;4.13;;;20.70;76.70;;;;;;10185610;29;20689;-81
2023/07/15 23:48:59;;;;;;;4.40;4.00;;;20.60;76.40;;;;;;10204126;29;20651;-82
2023/07/15 23:54:02;;;;;;;4.80;4.30;;;;;;;;;;10166936;29;20243;-82
2023/07/15 23:59:04;;;;;;;4.95;4.40;;;20.20;77.90;;;;;;10186866;29;20291;-82
